Time;durP1;ratioP1;P1;durP2;ratioP2;P2;SDS_P1;SDS_P2;PMS_P1;PMS_P2;Temp;Humidity;BMP_temperature;BMP_pressure;BME280_temperature;BME280_humidity;BME280_pressure;Samples;Min_cycle;Max_cycle;Signal;HPM_P1;HPM_P2
2022/08/25 00:01:13;;;;;;;6.78;4.75;;;19.90;99.90;;;;;;5077769;28;20044;-90
2022/08/25 00:03:40;;;;;;;10.02;4.70;;;19.80;99.90;;;;;;5095172;28;20046;-91
2022/08/25 00:06:07;;;;;;;11.32;5.05;;;19.80;99.90;;;;;;5093819;28;20046;-91
2022/08/25 00:08:36;;;;;;;10.40;4.80;;;19.80;99.90;;;;;;5077988;28;20490;-92
2022/08/25 00:11:03;;;;;;;7.03;4.30;;;19.80;99.90;;;;;;5077640;28;20059;-91
2022/08/25 00:13:29;;;;;;;8.43;4.75;;;19.80;99.90;;;;;;5094920;28;20046;-91
2022/08/25 00:15:55;;;;;;;7.30;4.35;;;19.80;99.90;;;;;;5095177;28;20496;-90
2022/08/25 00:18:21;;;;;;;6.68;4.18;;;19.80;99.90;;;;;;5076971;28;20055;-92
2022/08/25 00:20:47;;;;;;;9.05;4.22;;;19.80;99.90;;;;;;5061068;28;20050;-91
2022/08/25 00:23:13;;;;;;;7.50;4.70;;;19.80;99.90;;;;;;5093781;28;20055;-91
2022/08/25 00:25:38;;;;;;;5.63;4.10;;;19.80;99.90;;;;;;5094923;28;20474;-90
2022/08/25 00:28:04;;;;;;;7.03;4.05;;;19.80;99.90;;;;;;5077019;28;20054;-91
2022/08/25 00:30:30;;;;;;;10.45;3.80;;;19.90;99.90;;;;;;5060959;28;20063;-91
2022/08/25 00:32:56;;;;;;;6.18;3.35;;;19.80;99.90;;;;;;5077834;28;20069;-91
2022/08/25 00:35:23;;;;;;;7.72;3.72;;;19.80;99.90;;;;;;5077011;28;20051;-91
2022/08/25 00:37:49;;;;;;;5.88;3.85;;;19.90;99.90;;;;;;5061224;28;20047;-92
2022/08/25 00:40:15;;;;;;;11.15;4.55;;;19.80;99.90;;;;;;5076352;28;20054;-89
2022/08/25 00:42:41;;;;;;;3.75;3.35;;;19.80;99.90;;;;;;5077452;28;20130;-91
2022/08/25 00:45:08;;;;;;;8.45;3.78;;;19.80;99.90;;;;;;5060181;28;20071;-91
2022/08/25 00:47:35;;;;;;;5.65;3.00;;;19.80;99.90;;;;;;5094464;28;20079;-91
2022/08/25 00:50:04;;;;;;;5.28;3.80;;;19.80;99.90;;;;;;5094492;28;20065;-91
2022/08/25 00:52:37;;;;;;;8.05;3.90;;;19.60;99.90;;;;;;5093570;28;20043;-91
2022/08/25 00:55:06;;;;;;;6.00;4.10;;;19.80;99.90;;;;;;5095173;28;20081;-91
2022/08/25 00:57:58;;;;;;;6.22;3.65;;;19.70;99.90;;;;;;5093782;28;20039;-91
2022/08/25 01:00:30;;;;;;;3.92;3.47;;;19.70;99.90;;;;;;5072423;28;20047;-91
2022/08/25 01:02:56;;;;;;;;;;;19.60;99.90;;;;;;5103422;28;20043;-91
2022/08/25 01:05:23;;;;;;;5.38;2.83;;;19.70;99.90;;;;;;5103212;28;19920;-91
2022/08/25 01:07:51;;;;;;;6.15;3.58;;;19.70;99.90;;;;;;5105272;28;20057;-90
2022/08/25 01:10:20;;;;;;;8.48;3.72;;;19.70;99.90;;;;;;5070429;28;20059;-90
2022/08/25 01:12:45;;;;;;;9.85;3.35;;;19.70;99.90;;;;;;5087784;28;20040;-91
2022/08/25 01:15:13;;;;;;;7.03;3.33;;;19.70;99.90;;;;;;5065186;28;20054;-91
2022/08/25 01:17:48;;;;;;;6.43;3.25;;;19.70;99.90;;;;;;5078051;28;20039;-91
2022/08/25 01:20:14;;;;;;;8.75;3.08;;;19.70;99.90;;;;;;5094928;28;20035;-91
2022/08/25 01:22:40;;;;;;;6.50;2.47;;;19.70;99.90;;;;;;5092612;28;20096;-90
2022/08/25 01:25:36;;;;;;;4.30;2.78;;;19.70;99.90;;;;;;5077335;28;20051;-90
2022/08/25 01:28:02;;;;;;;6.22;3.22;;;19.70;99.90;;;;;;5070704;28;20131;-91
2022/08/25 01:30:28;;;;;;;11.77;2.90;;;19.70;99.90;;;;;;5093961;28;20039;-91
2022/08/25 01:32:53;;;;;;;4.60;2.67;;;19.80;99.90;;;;;;5076564;28;20383;-91
2022/08/25 01:35:19;;;;;;;5.13;2.90;;;19.80;99.90;;;;;;5059223;28;20039;-90
2022/08/25 01:37:46;;;;;;;6.45;2.75;;;19.80;99.90;;;;;;5059755;28;20071;-90
2022/08/25 01:40:12;;;;;;;6.30;2.63;;;19.80;99.90;;;;;;5092606;28;20085;-92
2022/08/25 01:42:41;;;;;;;7.32;3.00;;;19.00;99.90;;;;;;5076832;28;20043;-92
2022/08/25 01:45:09;;;;;;;8.65;2.70;;;20.90;99.90;;;;;;5092483;28;20079;-91
2022/08/25 01:47:35;;;;;;;7.07;2.45;;;19.80;99.90;;;;;;5094257;28;20035;-91
2022/08/25 01:50:02;;;;;;;10.07;2.53;;;19.80;99.90;;;;;;5093603;28;20073;-91
2022/08/25 01:52:35;;;;;;;9.80;2.92;;;19.80;99.90;;;;;;5076023;28;20040;-91
2022/08/25 01:55:01;;;;;;;6.93;2.78;;;19.80;99.90;;;;;;5093560;28;20043;-91
2022/08/25 01:57:30;;;;;;;4.15;2.92;;;19.80;99.90;;;;;;5058372;28;20099;-91
2022/08/25 01:59:56;;;;;;;4.88;2.47;;;19.80;99.90;;;;;;5076342;28;20100;-91
2022/08/25 02:02:22;;;;;;;4.88;2.70;;;19.80;99.90;;;;;;5092930;28;20043;-91
2022/08/25 02:04:48;;;;;;;6.82;2.50;;;19.80;99.90;;;;;;5059789;28;20546;-92
2022/08/25 02:07:13;;;;;;;6.03;2.78;;;19.80;99.90;;;;;;5092917;28;20035;-91
2022/08/25 02:09:39;;;;;;;6.75;2.70;;;19.80;99.90;;;;;;5075042;28;20079;-91
2022/08/25 02:12:08;;;;;;;5.22;2.72;;;19.80;99.90;;;;;;5059532;28;20044;-91
2022/08/25 02:14:35;;;;;;;10.13;3.63;;;19.80;99.90;;;;;;5091748;28;20130;-91
2022/08/25 02:17:02;;;;;;;14.68;3.30;;;19.80;99.90;;;;;;5077711;28;20048;-90
2022/08/25 02:19:29;;;;;;;11.80;2.60;;;19.80;99.90;;;;;;5093877;28;20089;-90
2022/08/25 02:21:56;;;;;;;4.75;3.38;;;19.70;99.90;;;;;;5077786;28;20545;-91
2022/08/25 02:24:22;;;;;;;6.05;3.10;;;19.70;99.90;;;;;;5094147;28;20082;-92
2022/08/25 02:26:49;;;;;;;10.70;3.20;;;19.70;99.90;;;;;;5061209;28;20542;-91
2022/08/25 02:29:15;;;;;;;4.15;2.58;;;19.70;99.90;;;;;;5077664;28;20050;-91
2022/08/25 02:31:41;;;;;;;4.82;2.60;;;19.70;99.90;;;;;;5076183;28;20476;-91
2022/08/25 02:34:08;;;;;;;3.67;2.38;;;19.70;99.90;;;;;;5094461;28;20489;-91
2022/08/25 02:36:36;;;;;;;6.35;3.50;;;19.70;99.90;;;;;;5094224;28;20040;-92
2022/08/25 02:39:03;;;;;;;4.75;2.55;;;19.70;99.90;;;;;;5093882;28;20506;-91
2022/08/25 02:41:29;;;;;;;4.75;2.38;;;19.70;99.90;;;;;;5092693;28;20066;-91
2022/08/25 02:43:55;;;;;;;7.60;2.70;;;19.60;99.90;;;;;;5076077;28;20078;-91
2022/08/25 02:46:23;;;;;;;6.35;3.03;;;19.60;99.90;;;;;;5060449;28;20516;-91
2022/08/25 02:48:51;;;;;;;6.82;2.80;;;19.60;99.90;;;;;;5075328;28;20027;-91
2022/08/25 02:51:18;;;;;;;7.35;2.67;;;19.60;99.90;;;;;;5092290;28;20127;-91
2022/08/25 02:53:46;;;;;;;5.20;2.50;;;19.60;99.90;;;;;;5074435;28;20042;-91
2022/08/25 02:56:14;;;;;;;3.00;2.35;;;19.60;99.90;;;;;;5074633;28;20050;-91
2022/08/25 02:58:40;;;;;;;13.98;2.60;;;19.60;99.90;;;;;;5091355;28;20407;-90
2022/08/25 03:01:10;;;;;;;4.60;2.80;;;19.50;99.90;;;;;;5090731;28;20083;-91
2022/08/25 03:03:39;;;;;;;8.32;2.90;;;19.50;99.90;;;;;;5091544;28;20039;-91
2022/08/25 03:06:09;;;;;;;7.75;3.58;;;19.40;99.90;;;;;;5073794;28;20118;-91
2022/08/25 03:08:36;;;;;;;5.90;2.78;;;19.50;99.90;;;;;;5091170;28;20063;-91
2022/08/25 03:11:02;;;;;;;10.05;2.72;;;20.20;99.90;;;;;;5073408;28;20127;-90
2022/08/25 03:13:28;;;;;;;7.07;2.47;;;19.50;99.90;;;;;;5073664;28;20039;-91
2022/08/25 03:15:54;;;;;;;15.32;2.70;;;19.40;99.90;;;;;;5091338;28;20055;-91
2022/08/25 03:18:21;;;;;;;5.40;2.85;;;19.40;99.90;;;;;;5056895;28;20177;-91
2022/08/25 03:20:47;;;;;;;10.88;2.78;;;19.40;99.90;;;;;;5058452;28;20043;-91
2022/08/25 03:23:13;;;;;;;4.68;2.95;;;19.30;99.90;;;;;;5056728;28;20125;-91
2022/08/25 03:28:25;;;;;;;8.90;2.90;;;19.30;99.90;;;;;;5095044;28;20067;-91
2022/08/25 03:30:52;;;;;;;7.18;3.22;;;19.20;99.90;;;;;;5077219;28;20059;-91
2022/08/25 03:33:18;;;;;;;4.10;2.58;;;19.40;99.90;;;;;;5077799;28;20062;-91
2022/08/25 03:35:44;;;;;;;3.50;2.40;;;19.20;99.90;;;;;;5092048;28;20075;-91
2022/08/25 03:38:11;;;;;;;7.28;2.58;;;19.50;99.90;;;;;;5057142;28;20055;-91
2022/08/25 03:40:37;;;;;;;8.40;3.10;;;19.10;99.90;;;;;;5074158;28;20482;-91
2022/08/25 03:43:03;;;;;;;7.18;3.30;;;19.10;99.90;;;;;;5058270;28;20050;-90
2022/08/25 03:45:29;;;;;;;5.03;2.83;;;19.00;99.90;;;;;;5074008;28;20109;-91
2022/08/25 03:47:55;;;;;;;4.72;2.80;;;19.00;99.90;;;;;;5073354;28;20062;-92
2022/08/25 03:50:22;;;;;;;6.93;3.10;;;19.00;99.90;;;;;;5057988;28;20043;-92
2022/08/25 03:52:53;;;;;;;5.30;2.42;;;19.00;99.90;;;;;;5072777;28;20071;-91
2022/08/25 03:55:21;;;;;;;5.13;3.03;;;19.00;99.90;;;;;;5090871;28;20086;-91
2022/08/25 03:57:47;;;;;;;4.75;3.22;;;19.00;99.90;;;;;;5089141;28;20043;-91
2022/08/25 04:00:13;;;;;;;6.60;2.65;;;19.00;99.90;;;;;;5090622;28;20410;-91
2022/08/25 04:02:40;;;;;;;4.93;2.83;;;19.00;99.90;;;;;;5073598;28;20043;-91
2022/08/25 04:05:07;;;;;;;8.88;3.47;;;19.00;99.90;;;;;;5073308;28;20089;-92
2022/08/25 04:07:32;;;;;;;4.03;2.55;;;18.90;99.90;;;;;;5074267;28;20446;-91
2022/08/25 04:09:58;;;;;;;6.35;3.42;;;18.90;99.90;;;;;;5056014;28;20109;-90
2022/08/25 04:12:24;;;;;;;4.65;3.08;;;18.90;99.90;;;;;;5057040;28;20133;-91
2022/08/25 04:14:50;;;;;;;3.97;2.78;;;18.90;99.90;;;;;;5089211;28;20750;-92
2022/08/25 04:17:16;;;;;;;6.43;2.95;;;18.20;99.90;;;;;;5056876;28;20093;-91
2022/08/25 04:19:42;;;;;;;5.40;2.90;;;18.90;99.90;;;;;;5056889;28;20043;-90
2022/08/25 04:22:07;;;;;;;7.32;2.78;;;19.40;99.90;;;;;;5073402;28;20059;-91
2022/08/25 04:24:33;;;;;;;3.47;3.03;;;18.90;99.90;;;;;;5073803;28;20051;-92
2022/08/25 04:26:59;;;;;;;5.00;3.10;;;18.90;99.90;;;;;;5072566;28;20040;-91
2022/08/25 04:29:25;;;;;;;4.20;3.15;;;18.90;99.90;;;;;;5057246;28;20106;-91
2022/08/25 04:31:52;;;;;;;5.50;3.30;;;18.90;99.90;;;;;;5072262;28;20550;-91
2022/08/25 04:34:20;;;;;;;7.03;4.68;;;18.80;99.90;;;;;;5090663;28;20097;-91
2022/08/25 04:36:46;;;;;;;3.70;3.15;;;18.80;99.90;;;;;;5072963;28;20051;-91
2022/08/25 04:39:12;;;;;;;7.00;3.17;;;18.80;99.90;;;;;;5082364;27;20041;-91
2022/08/25 04:41:38;;;;;;;7.32;3.22;;;18.80;99.90;;;;;;5092079;28;20456;-91
2022/08/25 04:44:04;;;;;;;7.18;3.42;;;18.70;99.90;;;;;;5076076;28;20185;-90
2022/08/25 04:46:32;;;;;;;7.15;3.50;;;18.70;99.90;;;;;;5094341;28;20042;-91
2022/08/25 04:49:00;;;;;;;5.03;3.17;;;18.70;99.90;;;;;;5093161;28;20497;-91
2022/08/25 04:51:29;;;;;;;6.88;3.15;;;18.70;99.90;;;;;;5093879;28;20039;-90
2022/08/25 04:53:59;;;;;;;14.15;3.72;;;18.80;99.90;;;;;;5093485;28;20073;-91
2022/08/25 04:56:26;;;;;;;4.38;3.35;;;18.60;99.90;;;;;;5092984;28;20044;-91
2022/08/25 04:58:54;;;;;;;6.28;3.97;;;18.60;99.90;;;;;;5093736;28;20050;-90
2022/08/25 05:01:23;;;;;;;14.82;3.95;;;18.60;99.90;;;;;;5092362;28;20092;-91
2022/08/25 05:03:55;;;;;;;6.40;3.65;;;18.60;99.90;;;;;;5093697;28;20044;-92
2022/08/25 05:06:22;;;;;;;9.45;3.80;;;18.70;99.90;;;;;;5092715;28;20123;-91
2022/08/25 05:08:48;;;;;;;6.88;3.90;;;18.60;99.90;;;;;;5093401;28;20093;-90
2022/08/25 05:11:16;;;;;;;9.73;3.90;;;18.60;99.90;;;;;;5076087;28;20040;-91
2022/08/25 05:13:43;;;;;;;6.93;3.70;;;18.60;99.90;;;;;;5092392;28;20104;-91
2022/08/25 05:16:09;;;;;;;10.93;4.00;;;18.60;99.90;;;;;;5076765;28;20046;-91
2022/08/25 05:18:35;;;;;;;6.15;4.18;;;18.70;99.90;;;;;;5091934;28;20047;-91
2022/08/25 05:21:03;;;;;;;6.20;4.00;;;18.70;99.90;;;;;;5075972;28;20040;-91
2022/08/25 05:23:29;;;;;;;5.97;3.78;;;18.70;99.90;;;;;;5092238;28;20494;-91
2022/08/25 05:26:00;;;;;;;5.90;3.75;;;18.70;99.90;;;;;;5059573;28;20054;-91
2022/08/25 05:28:25;;;;;;;6.47;4.10;;;18.80;99.90;;;;;;5092916;28;20054;-92
2022/08/25 05:30:58;;;;;;;5.65;4.00;;;18.80;99.90;;;;;;5058626;28;20127;-91
2022/08/25 05:33:23;;;;;;;6.75;4.22;;;18.80;99.90;;;;;;5093124;28;20039;-92
2022/08/25 05:35:49;;;;;;;7.07;4.00;;;18.90;99.90;;;;;;5074632;28;20040;-91
2022/08/25 05:38:15;;;;;;;13.48;4.38;;;18.90;99.90;;;;;;5059848;28;20036;-91
2022/08/25 05:40:41;;;;;;;6.75;4.10;;;19.00;99.90;;;;;;5058267;28;20051;-92
2022/08/25 05:43:06;;;;;;;8.35;4.18;;;19.00;99.90;;;;;;5076196;28;20054;-91
2022/08/25 05:45:32;;;;;;;12.55;4.85;;;19.00;99.90;;;;;;5092798;28;20047;-92
2022/08/25 05:47:58;;;;;;;7.28;4.10;;;19.10;99.90;;;;;;5059081;28;20052;-91
2022/08/25 05:50:23;;;;;;;8.60;4.43;;;19.10;99.90;;;;;;5059506;28;20039;-92
2022/08/25 05:52:49;;;;;;;7.93;4.18;;;19.20;99.90;;;;;;5057595;28;20047;-92
2022/08/25 05:55:15;;;;;;;8.20;4.40;;;19.30;99.90;;;;;;5092510;28;20536;-91
2022/08/25 05:57:41;;;;;;;4.38;3.75;;;19.40;99.90;;;;;;5074835;28;20160;-90
2022/08/25 06:00:08;;;;;;;6.43;4.93;;;19.40;99.90;;;;;;5075830;28;20078;-92
2022/08/25 06:02:40;;;;;;;8.88;4.35;;;19.50;99.90;;;;;;5092084;28;20036;-91
2022/08/25 06:05:07;;;;;;;6.40;4.45;;;19.60;99.90;;;;;;5060133;28;20044;-92
2022/08/25 06:07:34;;;;;;;6.00;3.95;;;19.70;99.90;;;;;;5076211;28;20118;-91
2022/08/25 06:10:02;;;;;;;9.55;3.90;;;19.80;99.90;;;;;;5074375;28;20047;-92
2022/08/25 06:12:29;;;;;;;6.93;4.35;;;19.90;99.90;;;;;;5092692;28;20040;-92
2022/08/25 06:14:55;;;;;;;5.10;3.97;;;19.90;99.90;;;;;;5075068;28;20320;-91
2022/08/25 06:17:21;;;;;;;9.40;4.45;;;20.00;99.90;;;;;;5078551;28;20323;-92
2022/08/25 06:19:47;;;;;;;7.15;4.43;;;20.10;99.90;;;;;;5058906;28;20044;-91
2022/08/25 06:22:12;;;;;;;5.72;4.05;;;20.20;99.90;;;;;;5057787;28;20038;-92
2022/08/25 06:24:38;;;;;;;9.02;4.03;;;20.90;99.90;;;;;;5075480;28;20079;-91
2022/08/25 06:27:04;;;;;;;9.90;4.25;;;20.40;99.90;;;;;;5057494;28;20229;-91
2022/08/25 06:29:30;;;;;;;9.82;4.43;;;20.50;99.90;;;;;;5091991;28;20058;-92
2022/08/25 06:31:56;;;;;;;6.90;4.25;;;20.60;99.90;;;;;;5057580;28;20526;-91
2022/08/25 06:34:21;;;;;;;7.70;4.55;;;20.70;99.90;;;;;;5058725;28;20131;-91
2022/08/25 06:36:49;;;;;;;6.90;3.97;;;20.80;99.90;;;;;;5074801;28;20044;-92
2022/08/25 06:39:15;;;;;;;6.07;4.47;;;20.90;99.90;;;;;;5074850;28;20043;-90
2022/08/25 06:41:41;;;;;;;6.55;4.10;;;21.00;99.90;;;;;;5092315;28;20055;-92
2022/08/25 06:44:07;;;;;;;10.38;4.82;;;21.10;99.90;;;;;;5073826;28;20043;-91
2022/08/25 06:46:33;;;;;;;9.93;4.32;;;21.10;99.90;;;;;;5074870;28;20043;-91
2022/08/25 06:48:59;;;;;;;5.88;4.97;;;21.30;99.90;;;;;;5057041;28;20036;-91
2022/08/25 06:51:26;;;;;;;12.25;4.45;;;21.30;99.90;;;;;;5058606;28;20039;-91
2022/08/25 06:53:52;;;;;;;12.88;5.00;;;21.40;99.90;;;;;;5059039;28;20039;-91
2022/08/25 06:56:19;;;;;;;11.10;4.40;;;21.70;99.90;;;;;;5091181;28;20062;-90
2022/08/25 06:58:46;;;;;;;8.38;4.18;;;21.60;99.90;;;;;;5075843;28;20043;-91
2022/08/25 07:01:20;;;;;;;7.00;4.28;;;21.70;99.90;;;;;;5092514;28;20074;-91
2022/08/25 07:03:47;;;;;;;6.38;4.22;;;21.80;99.90;;;;;;5092918;28;20044;-90
2022/08/25 07:06:13;;;;;;;6.78;4.10;;;21.90;99.90;;;;;;5075082;28;20107;-91
2022/08/25 07:08:39;;;;;;;6.80;4.00;;;22.00;99.90;;;;;;5092205;28;20119;-93
2022/08/25 07:11:10;;;;;;;5.72;4.00;;;22.20;99.90;;;;;;5074925;28;20386;-91
2022/08/25 07:13:37;;;;;;;8.35;4.68;;;22.20;99.90;;;;;;5074112;28;20047;-92
2022/08/25 07:16:04;;;;;;;12.65;3.92;;;22.30;99.90;;;;;;5075234;28;20066;-90
2022/08/25 07:18:30;;;;;;;8.88;4.22;;;22.40;99.90;;;;;;5090228;28;20044;-91
2022/08/25 07:20:57;;;;;;;6.38;3.65;;;22.10;99.90;;;;;;5076220;28;20130;-90
2022/08/25 07:23:23;;;;;;;7.38;4.53;;;22.60;99.90;;;;;;5074501;28;20103;-90
2022/08/25 07:25:49;;;;;;;4.65;3.47;;;22.70;99.90;;;;;;5074064;28;20039;-91
2022/08/25 07:28:16;;;;;;;8.23;4.20;;;22.80;99.90;;;;;;5074338;28;20036;-91
2022/08/25 07:30:42;;;;;;;5.95;3.40;;;22.80;99.90;;;;;;5073235;28;20051;-91
2022/08/25 07:33:08;;;;;;;6.93;3.80;;;23.00;99.90;;;;;;5091082;28;20456;-90
2022/08/25 07:35:35;;;;;;;7.93;3.80;;;23.10;99.90;;;;;;5073056;28;20055;-92
2022/08/25 07:38:02;;;;;;;5.53;4.13;;;23.10;99.90;;;;;;5074515;28;20517;-91
2022/08/25 07:40:30;;;;;;;5.10;3.90;;;23.20;99.90;;;;;;5072654;28;20100;-91
2022/08/25 07:43:01;;;;;;;8.98;4.03;;;23.30;99.90;;;;;;5091388;28;20040;-91
2022/08/25 07:45:30;;;;;;;5.95;4.40;;;23.40;99.90;;;;;;5091223;28;20039;-92
2022/08/25 07:48:01;;;;;;;5.13;3.42;;;23.50;99.90;;;;;;5089982;28;20043;-91
2022/08/25 07:50:28;;;;;;;10.13;3.67;;;23.60;99.90;;;;;;5091193;28;20134;-91
2022/08/25 07:52:55;;;;;;;6.35;4.18;;;23.70;99.90;;;;;;5089601;28;20047;-91
2022/08/25 07:55:25;;;;;;;7.05;4.00;;;23.80;99.90;;;;;;5091470;28;20036;-90
2022/08/25 07:57:52;;;;;;;6.03;4.00;;;23.90;99.90;;;;;;5074143;28;20477;-91
2022/08/25 08:00:18;;;;;;;6.95;3.88;;;24.00;99.90;;;;;;5091310;28;20043;-91
2022/08/25 08:02:43;;;;;;;6.47;3.33;;;24.10;99.90;;;;;;5058348;28;20047;-91
2022/08/25 08:05:10;;;;;;;9.13;4.97;;;24.20;99.90;;;;;;5056919;28;20054;-90
2022/08/25 08:07:36;;;;;;;7.43;3.85;;;24.30;99.90;;;;;;5058292;28;20501;-92
2022/08/25 08:10:04;;;;;;;7.90;3.67;;;24.40;99.90;;;;;;5090729;28;20122;-91
2022/08/25 08:12:30;;;;;;;6.63;3.17;;;24.60;99.90;;;;;;5080319;28;20553;-92
2022/08/25 08:14:57;;;;;;;7.22;3.55;;;24.60;99.90;;;;;;5083970;28;20035;-92
2022/08/25 08:17:23;;;;;;;6.57;3.05;;;24.70;99.90;;;;;;5090281;28;20047;-93
2022/08/25 08:19:49;;;;;;;5.00;3.13;;;24.90;99.90;;;;;;5107046;28;20103;-91
2022/08/25 08:22:15;;;;;;;4.90;3.08;;;25.00;99.90;;;;;;5083463;28;20071;-92
2022/08/25 08:24:43;;;;;;;5.15;3.47;;;25.30;99.90;;;;;;5064178;28;20035;-91
2022/08/25 08:27:11;;;;;;;6.22;3.45;;;25.20;99.90;;;;;;5098787;28;20130;-92
2022/08/25 08:29:38;;;;;;;7.80;3.25;;;25.30;99.90;;;;;;5100162;28;20085;-92
2022/08/25 08:32:06;;;;;;;3.80;2.72;;;25.40;99.90;;;;;;5096505;28;20051;-92
2022/08/25 08:34:32;;;;;;;5.70;3.53;;;25.50;99.90;;;;;;5094463;28;20039;-91
2022/08/25 08:36:58;;;;;;;8.43;3.53;;;25.60;99.90;;;;;;5079409;28;20047;-91
2022/08/25 08:39:25;;;;;;;12.27;4.38;;;25.80;99.90;;;;;;5094745;28;20044;-91
2022/08/25 08:42:15;;;;;;;4.63;2.92;;;25.90;99.90;;;;;;5061601;28;20666;-91
2022/08/25 08:44:53;;;;;;;6.28;2.75;;;26.00;99.90;;;;;;5093797;28;20086;-92
2022/08/25 08:47:27;;;;;;;7.93;3.50;;;26.20;99.90;;;;;;5094120;28;20051;-92
2022/08/25 08:50:31;;;;;;;5.43;3.42;;;26.30;99.90;;;;;;5093441;28;20039;-92
2022/08/25 08:53:22;;;;;;;6.35;3.13;;;26.40;99.90;;;;;;5092731;28;20055;-91
2022/08/25 08:55:55;;;;;;;6.38;2.78;;;26.60;99.90;;;;;;5094063;28;20043;-91
2022/08/25 08:58:23;;;;;;;4.38;2.97;;;26.70;99.90;;;;;;5093283;28;20513;-92
2022/08/25 09:00:54;;;;;;;5.85;2.60;;;26.80;99.90;;;;;;5092682;28;20126;-91
2022/08/25 09:03:47;;;;;;;6.82;3.20;;;26.90;99.90;;;;;;5093784;28;20085;-91
2022/08/25 09:06:41;;;;;;;5.10;2.55;;;27.00;98.50;;;;;;5092401;28;20077;-92
2022/08/25 09:09:10;;;;;;;3.55;2.55;;;27.10;99.60;;;;;;5085619;28;20512;-91
2022/08/25 09:11:53;;;;;;;5.85;2.60;;;27.10;99.90;;;;;;5093966;28;20043;-91
2022/08/25 09:14:19;;;;;;;5.63;2.95;;;27.30;99.40;;;;;;5092531;28;20050;-92
2022/08/25 09:16:53;;;;;;;7.28;3.20;;;27.40;99.40;;;;;;5093797;28;20382;-91
2022/08/25 09:19:47;;;;;;;4.97;2.75;;;26.80;98.50;;;;;;5092674;28;20050;-92
2022/08/25 09:22:30;;;;;;;5.43;2.63;;;27.60;98.30;;;;;;5093352;28;20043;-92
2022/08/25 09:25:21;;;;;;;8.93;2.85;;;27.70;97.70;;;;;;5094235;28;20048;-92
2022/08/25 09:28:07;;;;;;;4.72;2.60;;;27.80;98.00;;;;;;5094076;28;20185;-92
2022/08/25 09:30:50;;;;;;;6.35;2.92;;;28.00;96.60;;;;;;5097120;28;20039;-92
2022/08/25 09:33:21;;;;;;;8.38;3.03;;;28.00;95.50;;;;;;5098973;28;20052;-94
2022/08/25 09:35:48;;;;;;;4.95;2.42;;;28.20;95.30;;;;;;5101412;28;20054;-90
2022/08/25 09:38:14;;;;;;;2.78;2.25;;;28.20;94.80;;;;;;5088533;28;20054;-92
2022/08/25 09:40:44;;;;;;;3.63;2.55;;;28.30;94.50;;;;;;5100337;28;20079;-92
2022/08/25 09:43:22;;;;;;;6.80;2.45;;;28.30;94.00;;;;;;5099590;28;20160;-92
2022/08/25 09:46:15;;;;;;;7.80;2.60;;;28.40;93.50;;;;;;5100886;28;20043;-91
2022/08/25 09:48:40;;;;;;;;;;;28.50;93.00;;;;;;5083543;28;20161;-94
2022/08/25 09:51:27;;;;;;;5.10;2.65;;;28.50;92.90;;;;;;5093577;28;19924;-91
2022/08/25 09:54:11;;;;;;;5.05;2.20;;;28.60;92.60;;;;;;5092152;28;20145;-91
2022/08/25 09:57:04;;;;;;;7.22;2.33;;;28.80;90.90;;;;;;5091844;28;20047;-91
2022/08/25 09:59:33;;;;;;;5.75;2.20;;;28.90;87.80;;;;;;5092679;28;20757;-91
2022/08/25 10:02:01;;;;;;;5.28;2.20;;;29.00;90.80;;;;;;5091024;28;20046;-90
2022/08/25 10:04:35;;;;;;;5.30;1.70;;;29.10;90.10;;;;;;5092716;28;20116;-91
2022/08/25 10:07:19;;;;;;;3.95;1.85;;;29.20;86.80;;;;;;5092776;28;20079;-92
2022/08/25 10:09:53;;;;;;;2.58;1.60;;;29.20;83.90;;;;;;5076553;28;20036;-91
2022/08/25 10:12:40;;;;;;;7.90;2.13;;;29.30;79.50;;;;;;5092816;28;20481;-92
2022/08/25 10:15:32;;;;;;;4.68;1.60;;;29.30;80.90;;;;;;5091356;28;20055;-92
2022/08/25 10:18:20;;;;;;;7.53;2.13;;;29.40;74.40;;;;;;5091505;28;20036;-91
2022/08/25 10:21:06;;;;;;;6.40;2.92;;;29.40;73.70;;;;;;5092085;28;20058;-92
2022/08/25 10:23:36;;;;;;;5.45;2.22;;;29.50;78.10;;;;;;5091101;28;20434;-90
2022/08/25 10:26:16;;;;;;;4.50;2.05;;;29.60;76.40;;;;;;5091712;28;20046;-91
2022/08/25 10:29:14;;;;;;;3.58;1.75;;;29.70;76.30;;;;;;5092343;28;20500;-92
2022/08/25 10:31:47;;;;;;;3.47;2.10;;;29.80;74.00;;;;;;5090636;28;20494;-91
2022/08/25 10:34:35;;;;;;;5.80;2.25;;;29.90;69.00;;;;;;5092190;28;20092;-92
2022/08/25 10:37:27;;;;;;;5.00;2.03;;;29.90;71.00;;;;;;5092478;28;20040;-93
2022/08/25 10:40:02;;;;;;;5.03;2.00;;;29.90;70.30;;;;;;5089304;28;20062;-93
2022/08/25 10:42:49;;;;;;;5.32;1.80;;;29.90;70.00;;;;;;5092158;28;20406;-92
2022/08/25 10:45:42;;;;;;;8.20;2.58;;;30.00;66.70;;;;;;5091780;28;20402;-92
2022/08/25 10:48:11;;;;;;;5.97;2.80;;;30.00;67.80;;;;;;5091007;28;20035;-91
2022/08/25 10:51:06;;;;;;;5.30;2.05;;;30.10;68.60;;;;;;5091992;28;20048;-92
2022/08/25 10:53:50;;;;;;;4.97;2.00;;;30.20;67.90;;;;;;5037348;28;20056;-93
2022/08/25 10:56:20;;;;;;;6.03;2.25;;;30.30;66.90;;;;;;5091542;28;20066;-92
2022/08/25 10:59:03;;;;;;;4.00;2.10;;;30.30;67.20;;;;;;5091829;28;20486;-92
2022/08/25 11:01:57;;;;;;;7.90;1.90;;;30.40;66.20;;;;;;5090187;28;20482;-92
2022/08/25 11:04:34;;;;;;;3.63;2.35;;;30.50;63.60;;;;;;5091649;28;20044;-91
2022/08/25 11:07:09;;;;;;;5.50;2.50;;;30.50;65.90;;;;;;5092076;28;20066;-93
2022/08/25 11:09:41;;;;;;;7.70;2.15;;;30.60;65.50;;;;;;5090238;28;20050;-91
2022/08/25 11:12:14;;;;;;;8.13;2.67;;;30.60;64.60;;;;;;5091877;28;20100;-92
2022/08/25 11:14:51;;;;;;;6.60;1.95;;;30.70;64.50;;;;;;5090494;28;20375;-92
2022/08/25 11:17:28;;;;;;;5.22;2.28;;;30.80;63.40;;;;;;5091622;28;20058;-92
2022/08/25 11:19:59;;;;;;;5.05;2.40;;;30.80;61.90;;;;;;5091799;28;20050;-92
2022/08/25 11:22:36;;;;;;;4.47;1.80;;;30.90;62.60;;;;;;5091129;28;20031;-91
2022/08/25 11:25:26;;;;;;;5.15;2.20;;;30.90;62.50;;;;;;5091525;28;20545;-91
2022/08/25 11:28:06;;;;;;;3.92;2.42;;;30.90;60.20;;;;;;5090711;28;20073;-91
2022/08/25 11:30:32;;;;;;;3.88;2.13;;;30.90;63.00;;;;;;5091209;28;20075;-90
2022/08/25 11:32:58;;;;;;;4.85;2.15;;;30.90;61.50;;;;;;5058853;28;20043;-90
2022/08/25 11:35:30;;;;;;;7.68;2.35;;;31.00;62.30;;;;;;5090384;28;20563;-91
2022/08/25 11:38:14;;;;;;;5.47;2.15;;;31.10;61.40;;;;;;5093094;28;20509;-90
2022/08/25 11:40:48;;;;;;;4.70;2.10;;;31.20;61.40;;;;;;5089592;28;20091;-89
2022/08/25 11:43:29;;;;;;;5.50;2.25;;;31.30;61.10;;;;;;5091467;28;20130;-91
2022/08/25 11:46:16;;;;;;;4.22;2.20;;;31.30;62.30;;;;;;5091680;28;20066;-90
2022/08/25 11:49:01;;;;;;;4.47;2.33;;;31.50;60.90;;;;;;5090159;28;20065;-89
2022/08/25 11:51:47;;;;;;;5.43;2.72;;;31.50;61.70;;;;;;5093022;28;20051;-91
2022/08/25 11:54:19;;;;;;;8.73;2.38;;;31.60;57.80;;;;;;5083438;28;20039;-91
2022/08/25 11:57:01;;;;;;;5.43;1.95;;;31.50;58.90;;;;;;5101576;28;20044;-89
2022/08/25 11:59:48;;;;;;;6.80;2.40;;;31.50;57.60;;;;;;5098452;28;20079;-91
2022/08/25 12:02:36;;;;;;;4.45;3.13;;;31.60;58.10;;;;;;5096714;28;20292;-91
2022/08/25 12:05:27;;;;;;;8.13;2.65;;;31.70;57.00;;;;;;5100191;28;20043;-91
2022/08/25 12:11:04;;;;;;;3.45;1.90;;;31.80;58.40;;;;;;5109017;28;20096;-90
2022/08/25 12:13:49;;;;;;;4.90;1.83;;;31.90;54.80;;;;;;5092367;28;20050;-90
2022/08/25 12:16:33;;;;;;;4.05;2.13;;;32.00;54.80;;;;;;5092793;28;20128;-90
2022/08/25 12:19:23;;;;;;;9.88;2.60;;;32.00;55.30;;;;;;5091237;28;20067;-90
2022/08/25 12:21:49;;;;;;;4.95;1.65;;;32.10;54.40;;;;;;5090270;28;20511;-90
2022/08/25 12:24:19;;;;;;;4.35;1.92;;;32.10;54.70;;;;;;5091143;28;20062;-91
2022/08/25 12:26:52;;;;;;;3.55;2.05;;;32.10;54.50;;;;;;5089226;28;20130;-90
2022/08/25 12:29:40;;;;;;;4.97;2.05;;;32.20;54.80;;;;;;5089962;28;20050;-90
2022/08/25 12:32:29;;;;;;;10.43;1.98;;;32.30;53.50;;;;;;5089613;28;20406;-90
2022/08/25 12:35:22;;;;;;;4.47;2.03;;;32.40;52.20;;;;;;5089230;28;20087;-91
2022/08/25 12:38:00;;;;;;;2.80;1.95;;;32.50;53.10;;;;;;5090212;28;20126;-90
2022/08/25 12:40:27;;;;;;;5.22;2.25;;;32.50;51.90;;;;;;5104963;28;20090;-91
2022/08/25 12:43:04;;;;;;;3.80;1.80;;;32.50;52.00;;;;;;5089624;28;20057;-90
2022/08/25 12:45:36;;;;;;;3.55;2.05;;;32.50;51.60;;;;;;5090108;28;20051;-91
2022/08/25 12:48:24;;;;;;;5.30;2.08;;;32.60;51.60;;;;;;5088890;28;20482;-90
2022/08/25 12:50:56;;;;;;;8.77;2.50;;;32.70;52.20;;;;;;5089859;28;20074;-90
2022/08/25 12:53:27;;;;;;;3.85;2.40;;;32.70;50.80;;;;;;5088202;28;20132;-90
2022/08/25 12:56:03;;;;;;;6.38;2.20;;;32.70;50.50;;;;;;5106511;28;20379;-90
2022/08/25 12:59:07;;;;;;;4.05;2.05;;;32.60;50.40;;;;;;5090261;28;20093;-90
2022/08/25 13:01:48;;;;;;;8.50;2.17;;;32.70;49.00;;;;;;5077507;28;20101;-90
2022/08/25 13:04:17;;;;;;;6.43;2.08;;;32.70;49.80;;;;;;5093221;28;20040;-89
2022/08/25 13:06:52;;;;;;;6.38;2.05;;;32.70;50.00;;;;;;5092828;28;20044;-89
2022/08/25 13:09:24;;;;;;;5.10;1.70;;;32.70;50.50;;;;;;5092618;28;20086;-89
2022/08/25 13:11:57;;;;;;;3.05;1.98;;;32.70;50.20;;;;;;5092816;28;20039;-90